Last 6 Hours

AM-Roundhouse Btm 6950'

15 Minute Data | America/Los_Angeles
as of 9/1/26 9:53 AM PDT
Date & Time Temp (°F) RH (%) Dew Pt (°F) Wet Bulb (°F) Wind Dir (°) Wind Spd (mph) Wind Gust (mph) WindChill (°F) Barometric Press (inHg) Snow Depth (HS) (in) Latest Rain (In) Daily Rain (In) Daily Min Temp (°F) Daily Max Temp (°F)
9/1/26 - 0945 55.9 35 28.7 42.5 SSE | 164 5.1 13.1 55.9 30.07 3.3 0.00 0.00 49.9 56.2
9/1/26 - 0930 55.2 36 28.5 42.1 SSE | 149 7.9 19.3 55.2 30.05 3.0 0.00 0.00 49.9 55.6
9/1/26 - 0915 55.6 34 27.8 42.0 SSE | 156 7.1 15.3 55.6 30.06 3.2 0.00 0.00 49.9 55.6
9/1/26 - 0900 55.3 35 28.1 42.0 SE | 144 5.1 16.0 55.3 30.06 3.3 0.00 0.00 49.9 55.3
9/1/26 - 0845 54.3 36 28.1 41.5 SSE | 159 5.8 13.7 54.3 30.06 3.3 0.00 0.00 49.9 54.3
9/1/26 - 0830 52.2 40 28.4 40.7 SSE | 149 5.5 14.7 48.3 30.06 3.4 0.00 0.00 49.9 52.8
9/1/26 - 0815 51.8 42 29.3 40.8 SSE | 153 5.7 18.2 48.2 30.06 3.1 0.00 0.00 49.9 52.8
9/1/26 - 0800 51.8 41 29.0 40.7 SSE | 152 7.5 22.3 47.8 30.06 2.6 0.00 0.00 49.9 52.8
9/1/26 - 0745 51.3 43 29.6 40.7 SSE | 164 5.6 12.6 51.3 30.06 2.7 0.00 0.00 49.9 52.8
9/1/26 - 0730 51.0 44 30.2 40.8 SSE | 162 5.4 12.7 51.0 30.05 2.7 0.00 0.00 49.9 52.8
9/1/26 - 0715 51.0 44 30.0 40.7 SSE | 162 6.5 13.7 51.0 30.05 2.6 0.00 0.00 49.9 52.8
9/1/26 - 0700 51.0 44 29.9 40.6 SE | 143 5.7 12.1 47.9 30.05 2.8 0.00 0.00 49.9 52.8
9/1/26 - 0645 50.9 44 30.0 40.6 SSE | 151 6.8 13.5 50.9 30.05 2.9 0.00 0.00 49.9 52.8
9/1/26 - 0630 50.9 44 30.0 40.6 S | 172 5.0 12.7 49.0 30.05 2.6 0.00 0.00 49.9 52.8
9/1/26 - 0615 51.4 43 29.4 40.6 SSE | 158 5.5 12.5 51.4 30.05 2.6 0.00 0.00 49.9 52.8
9/1/26 - 0600 51.8 42 29.2 40.7 SSE | 164 5.9 12.8 47.8 30.05 2.7 0.00 0.00 49.9 52.8
9/1/26 - 0545 51.3 45 30.9 41.2 S | 181 4.8 20.0 49.7 30.04 2.5 0.00 0.00 49.9 52.8
9/1/26 - 0530 51.3 46 31.3 41.3 SSE | 168 5.1 13.7 51.3 30.05 2.8 0.00 0.00 49.9 52.8
9/1/26 - 0515 50.9 51 33.3 41.9 SSE | 164 4.1 12.5 47.7 30.05 2.5 0.00 0.00 49.9 52.8
9/1/26 - 0500 50.4 53 34.0 42.0 SSE | 147 6.7 16.5 45.7 30.05 2.5 0.00 0.00 49.9 52.8
9/1/26 - 0445 50.4 56 35.2 42.5 SSE | 158 5.4 12.9 47.6 30.06 2.5 0.00 0.00 49.9 52.8
9/1/26 - 0430 50.3 58 35.9 42.7 SSE | 158 5.1 15.3 47.2 30.06 2.5 0.00 0.00 50.1 52.8
9/1/26 - 0415 50.1 59 36.2 42.8 SSE | 162 4.1 9.8 50.1 30.05 2.5 0.00 0.00 50.1 52.8
9/1/26 - 0400 50.5 59 36.7 43.2 SSE | 158 4.3 11.6 50.5 30.06 2.6 0.00 0.00 50.4 52.8
Max 55.9 59 36.7 43.2 - 7.9 22.3 55.9 30.07 3.4 0.00 0.00 50.4 56.2
Avg 51.9 45 30.8 41.5 - 5.7 14.5 50.4 30.05 2.8 0.00 - - -
Min 50.1 34 27.8 40.6 - 4.1 9.8 45.7 30.04 2.5 0.00 0.00 49.9 52.8
Total - - - - - - - - - - 0.00 - - -